createdAt,value
2018-07-22T00:01:39.556Z,16.20
2018-07-22T00:04:07.171Z,16.30
2018-07-22T00:06:35.445Z,16.20
2018-07-22T00:09:05.297Z,16.10
2018-07-22T00:11:32.897Z,16.20
2018-07-22T00:14:00.575Z,16.20
2018-07-22T00:16:28.185Z,16.30
2018-07-22T00:18:55.778Z,16.40
2018-07-22T00:21:23.457Z,16.40
2018-07-22T00:23:51.122Z,16.30
2018-07-22T00:26:18.796Z,16.40
2018-07-22T00:28:46.394Z,16.40
2018-07-22T00:31:14.021Z,16.40
2018-07-22T00:33:42.269Z,16.40
2018-07-22T00:36:09.897Z,16.30
2018-07-22T00:38:37.485Z,16.20
2018-07-22T00:41:05.236Z,16.20
2018-07-22T00:43:37.209Z,16.10
2018-07-22T00:46:04.840Z,16.10
2018-07-22T00:48:32.445Z,16.10
2018-07-22T00:51:00.092Z,16.20
2018-07-22T00:53:27.721Z,16.20
2018-07-22T00:55:55.313Z,16.20
2018-07-22T00:58:23.101Z,16.10
2018-07-22T01:00:50.731Z,16.20
2018-07-22T01:03:18.396Z,16.10
2018-07-22T01:05:45.989Z,16.10
2018-07-22T01:08:14.284Z,16.10
2018-07-22T01:10:41.876Z,16.20
2018-07-22T01:13:10.535Z,16.10
2018-07-22T01:18:06.372Z,16.20
2018-07-22T01:20:33.990Z,16.30
2018-07-22T01:23:01.647Z,16.30
2018-07-22T01:25:29.217Z,16.30
2018-07-22T01:27:56.861Z,16.30
2018-07-22T01:30:24.500Z,16.20
2018-07-22T01:32:52.111Z,16.20
2018-07-22T01:35:19.713Z,16.30
2018-07-22T01:37:47.328Z,16.30
2018-07-22T01:40:14.960Z,16.30
2018-07-22T01:42:42.561Z,16.30
2018-07-22T01:45:10.210Z,16.30
2018-07-22T01:47:37.865Z,16.30
2018-07-22T01:50:05.636Z,16.30
2018-07-22T01:52:33.249Z,16.30
2018-07-22T01:55:00.884Z,16.30
2018-07-22T01:57:28.672Z,16.30
2018-07-22T01:59:56.301Z,16.30
2018-07-22T02:02:23.937Z,16.40
2018-07-22T02:04:51.567Z,16.30
2018-07-22T02:07:19.188Z,16.30
2018-07-22T02:09:46.789Z,16.30
2018-07-22T02:12:14.452Z,16.20
2018-07-22T02:14:42.021Z,16.30
2018-07-22T02:19:38.352Z,16.30
2018-07-22T02:22:06.065Z,16.30
2018-07-22T02:24:33.680Z,16.40
2018-07-22T02:27:01.274Z,16.30
2018-07-22T02:29:29.485Z,15.60
2018-07-22T02:31:57.589Z,16.50
2018-07-22T02:34:25.156Z,16.40
2018-07-22T02:39:20.297Z,16.80
2018-07-22T02:41:47.903Z,16.80
2018-07-22T02:44:15.465Z,17.00
2018-07-22T02:46:43.103Z,16.70
2018-07-22T02:49:10.667Z,16.60
2018-07-22T02:51:38.391Z,16.50
2018-07-22T02:54:05.950Z,16.40
2018-07-22T02:56:33.537Z,16.30
2018-07-22T02:59:04.119Z,16.20
2018-07-22T03:01:33.205Z,16.20
2018-07-22T03:04:01.033Z,16.20
2018-07-22T03:06:28.630Z,16.20
2018-07-22T03:08:56.216Z,16.10
2018-07-22T03:13:52.516Z,16.20
2018-07-22T03:16:20.722Z,16.20
2018-07-22T03:21:15.821Z,16.10
2018-07-22T03:23:43.441Z,16.10
2018-07-22T03:26:11.058Z,16.10
2018-07-22T03:28:38.677Z,16.10
2018-07-22T03:31:06.336Z,16.00
2018-07-22T03:33:34.953Z,16.00
2018-07-22T03:36:02.537Z,16.00
2018-07-22T03:38:30.121Z,15.90
2018-07-22T03:40:57.741Z,16.10
2018-07-22T03:43:25.359Z,16.10
2018-07-22T03:45:52.948Z,16.10
2018-07-22T03:48:21.113Z,16.10
2018-07-22T03:50:48.693Z,16.10
2018-07-22T03:53:16.289Z,16.10
2018-07-22T03:55:43.881Z,16.10
2018-07-22T03:58:12.594Z,16.10
2018-07-22T04:00:40.193Z,16.00
2018-07-22T04:03:07.785Z,16.10
2018-07-22T04:05:35.469Z,16.10
2018-07-22T04:08:03.106Z,16.10
2018-07-22T04:10:30.789Z,16.20
2018-07-22T04:12:58.448Z,16.10
2018-07-22T04:15:26.117Z,16.10
2018-07-22T04:17:54.729Z,16.20
2018-07-22T04:20:22.328Z,16.20
2018-07-22T04:22:49.924Z,16.20
2018-07-22T04:25:17.512Z,16.20
2018-07-22T04:27:45.098Z,16.30
2018-07-22T04:30:12.712Z,16.30
2018-07-22T04:32:40.280Z,16.30
2018-07-22T04:35:07.873Z,16.30
2018-07-22T04:40:03.148Z,16.30
2018-07-22T04:42:30.733Z,16.30
2018-07-22T04:44:58.344Z,16.30
2018-07-22T04:47:25.929Z,16.40
2018-07-22T04:49:54.529Z,16.50
2018-07-22T04:52:22.133Z,16.70
2018-07-22T04:54:49.755Z,16.70
2018-07-22T04:57:17.361Z,16.60
2018-07-22T04:59:44.957Z,16.60
2018-07-22T05:02:12.542Z,16.50
2018-07-22T05:04:40.136Z,16.40
2018-07-22T05:07:07.711Z,16.50
2018-07-22T05:09:35.960Z,16.50
2018-07-22T05:12:04.617Z,16.40
2018-07-22T05:14:32.213Z,16.40
2018-07-22T05:16:59.785Z,16.30
2018-07-22T05:19:27.397Z,16.40
2018-07-22T05:21:54.988Z,16.50
2018-07-22T05:24:22.589Z,16.50
2018-07-22T05:26:50.157Z,16.50
2018-07-22T05:29:17.753Z,16.40
2018-07-22T05:31:45.333Z,16.50
2018-07-22T05:34:12.936Z,16.40
2018-07-22T05:36:40.500Z,16.30
2018-07-22T05:39:10.112Z,16.40
2018-07-22T05:41:37.724Z,16.20
2018-07-22T05:44:05.510Z,16.20
2018-07-22T05:46:33.097Z,16.20
2018-07-22T05:49:00.669Z,16.30
2018-07-22T05:51:28.328Z,16.40
2018-07-22T05:53:55.948Z,16.40
2018-07-22T05:56:23.533Z,16.40
2018-07-22T05:58:51.189Z,16.50
2018-07-22T06:01:18.756Z,16.50
2018-07-22T06:03:46.374Z,16.50
2018-07-22T06:06:14.044Z,16.40
2018-07-22T06:08:41.640Z,16.60
2018-07-22T06:11:09.277Z,16.60
2018-07-22T06:13:37.375Z,16.60
2018-07-22T06:16:05.009Z,16.70
2018-07-22T06:18:32.600Z,16.80
2018-07-22T06:21:00.262Z,16.70
2018-07-22T06:23:27.870Z,16.70
2018-07-22T06:25:55.519Z,16.80
2018-07-22T06:28:23.124Z,16.80
2018-07-22T06:30:50.713Z,16.90
2018-07-22T06:33:18.289Z,17.00
2018-07-22T06:35:46.137Z,17.00
2018-07-22T06:38:13.753Z,17.00
2018-07-22T06:40:41.379Z,17.10
2018-07-22T06:43:09.218Z,17.00
2018-07-22T06:45:36.805Z,17.00
2018-07-22T06:48:04.449Z,17.00
2018-07-22T06:50:32.053Z,17.00
2018-07-22T06:52:59.648Z,17.00
2018-07-22T06:55:27.234Z,17.00
2018-07-22T06:57:54.825Z,16.90
2018-07-22T07:00:22.389Z,16.90
2018-07-22T07:02:49.964Z,16.90
2018-07-22T07:05:17.597Z,16.80
2018-07-22T07:07:46.330Z,16.80
2018-07-22T07:10:13.920Z,16.90
2018-07-22T07:12:41.512Z,17.00
2018-07-22T07:15:09.097Z,16.90
2018-07-22T07:17:36.693Z,16.90
2018-07-22T07:20:04.617Z,16.90
2018-07-22T07:22:32.243Z,16.40
2018-07-22T07:24:59.816Z,16.90
2018-07-22T07:27:27.412Z,16.90
2018-07-22T07:29:54.997Z,16.80
2018-07-22T07:32:22.593Z,16.70
2018-07-22T07:34:50.190Z,16.70
2018-07-22T07:37:17.804Z,16.70
2018-07-22T07:39:46.401Z,16.70
2018-07-22T07:42:14.045Z,16.80
2018-07-22T07:44:41.634Z,16.80
2018-07-22T07:47:09.597Z,16.90
2018-07-22T07:49:37.176Z,16.90
2018-07-22T07:52:04.808Z,17.00
2018-07-22T07:54:32.416Z,16.90
2018-07-22T07:57:00.034Z,16.90
2018-07-22T07:59:27.636Z,16.90
2018-07-22T08:01:55.233Z,16.90
2018-07-22T08:04:22.817Z,17.00
2018-07-22T08:06:50.432Z,17.10
2018-07-22T08:09:18.008Z,17.20
2018-07-22T08:11:45.603Z,17.20
2018-07-22T08:14:13.278Z,17.10
2018-07-22T08:16:40.858Z,17.10
2018-07-22T08:19:08.509Z,17.10
2018-07-22T08:21:36.090Z,17.10
2018-07-22T08:24:03.755Z,17.20
2018-07-22T08:26:31.334Z,17.20
2018-07-22T08:29:31.876Z,17.40
2018-07-22T08:32:01.165Z,17.70
2018-07-22T08:34:28.828Z,17.60
2018-07-22T08:36:56.445Z,17.50
2018-07-22T08:39:25.277Z,17.50
2018-07-22T08:41:53.677Z,17.60
2018-07-22T08:44:21.358Z,16.80
2018-07-22T08:46:48.953Z,17.90
2018-07-22T08:49:16.590Z,18.00
2018-07-22T08:51:44.253Z,18.00
2018-07-22T08:54:13.464Z,17.80
2018-07-22T08:56:41.151Z,17.80
2018-07-22T08:59:08.745Z,17.80
2018-07-22T09:01:36.377Z,17.70
2018-07-22T09:04:04.110Z,17.60
2018-07-22T09:06:32.733Z,17.70
2018-07-22T09:09:00.309Z,17.70
2018-07-22T09:11:27.961Z,17.80
2018-07-22T09:13:56.017Z,17.90
2018-07-22T09:16:24.669Z,18.00
2018-07-22T09:18:52.320Z,18.00
2018-07-22T09:21:20.166Z,18.10
2018-07-22T09:23:47.763Z,18.20
2018-07-22T09:26:15.351Z,18.40
2018-07-22T09:28:42.909Z,18.30
2018-07-22T09:31:10.518Z,18.30
2018-07-22T09:33:38.097Z,18.50
2018-07-22T09:36:05.898Z,18.60
2018-07-22T09:41:01.854Z,18.50
2018-07-22T09:43:29.425Z,18.50
2018-07-22T09:45:57.037Z,18.40
2018-07-22T09:48:25.096Z,18.30
2018-07-22T09:50:52.686Z,18.20
2018-07-22T09:53:20.275Z,18.30
2018-07-22T09:55:48.445Z,18.60
2018-07-22T09:58:16.018Z,18.70
2018-07-22T10:00:49.441Z,18.80
2018-07-22T10:03:17.115Z,18.80
2018-07-22T10:05:45.753Z,18.70
2018-07-22T10:08:13.338Z,18.60
2018-07-22T10:10:41.002Z,18.50
2018-07-22T10:13:09.283Z,18.40
2018-07-22T10:15:36.908Z,18.60
2018-07-22T10:18:04.594Z,18.70
2018-07-22T10:20:32.238Z,18.70
2018-07-22T10:22:59.812Z,18.60
2018-07-22T10:25:27.388Z,18.50
2018-07-22T10:27:56.141Z,18.40
2018-07-22T10:30:23.780Z,18.20
2018-07-22T10:32:51.342Z,18.10
2018-07-22T10:35:19.040Z,18.20
2018-07-22T10:37:46.660Z,18.10
2018-07-22T10:40:14.737Z,18.20
2018-07-22T10:42:42.424Z,18.20
2018-07-22T10:45:10.045Z,18.20
2018-07-22T10:47:38.268Z,18.10
2018-07-22T10:50:05.986Z,18.10
2018-07-22T10:52:33.605Z,18.20
2018-07-22T10:55:01.170Z,18.30
2018-07-22T10:57:28.788Z,18.30
2018-07-22T10:59:56.365Z,18.30
2018-07-22T11:02:24.048Z,18.30
2018-07-22T11:04:51.612Z,18.30
2018-07-22T11:07:19.574Z,18.30
2018-07-22T11:09:47.149Z,18.10
2018-07-22T11:12:14.740Z,18.00
2018-07-22T11:14:42.315Z,18.10
2018-07-22T11:17:10.188Z,18.10
2018-07-22T11:19:37.773Z,18.10
2018-07-22T11:22:05.577Z,18.10
2018-07-22T11:24:33.143Z,18.10
2018-07-22T11:27:00.764Z,18.10
2018-07-22T11:29:28.371Z,18.10
2018-07-22T11:31:55.961Z,18.10
2018-07-22T11:34:23.556Z,18.10
2018-07-22T11:36:51.153Z,18.10
2018-07-22T11:39:18.725Z,18.10
2018-07-22T11:41:46.383Z,18.00
2018-07-22T11:44:13.993Z,18.00
2018-07-22T11:46:41.641Z,18.00
2018-07-22T11:49:09.555Z,18.00
2018-07-22T11:51:37.894Z,18.00
2018-07-22T11:54:05.729Z,18.00
2018-07-22T11:56:33.370Z,17.90
2018-07-22T11:59:00.924Z,18.00
2018-07-22T12:01:28.589Z,18.00
2018-07-22T12:03:56.164Z,18.00
2018-07-22T12:06:23.829Z,17.90
2018-07-22T12:08:51.393Z,17.90
2018-07-22T12:11:19.061Z,17.80
2018-07-22T12:13:46.660Z,17.70
2018-07-22T12:16:14.249Z,17.80
2018-07-22T12:18:41.828Z,17.70
2018-07-22T12:21:09.466Z,17.80
2018-07-22T12:23:37.047Z,17.90
2018-07-22T12:26:04.665Z,17.90
2018-07-22T12:28:32.227Z,17.80
2018-07-22T12:30:59.817Z,17.90
2018-07-22T12:33:27.409Z,18.00
2018-07-22T12:35:55.022Z,17.90
2018-07-22T12:38:22.596Z,17.90
2018-07-22T12:40:50.169Z,17.70
2018-07-22T12:43:17.767Z,17.70
2018-07-22T12:45:45.364Z,17.50
2018-07-22T12:48:12.958Z,17.50
2018-07-22T12:50:40.582Z,17.40
2018-07-22T12:53:08.713Z,17.30
2018-07-22T12:55:36.357Z,17.10
2018-07-22T12:58:03.974Z,17.20
2018-07-22T13:00:31.538Z,17.20
2018-07-22T13:02:59.132Z,17.30
2018-07-22T13:05:26.816Z,17.20
2018-07-22T13:07:54.521Z,17.10
2018-07-22T13:10:22.097Z,17.00
2018-07-22T13:12:50.686Z,16.90
2018-07-22T13:15:18.272Z,17.00
2018-07-22T13:17:45.906Z,16.90
2018-07-22T13:20:13.521Z,17.00
2018-07-22T13:22:41.210Z,16.90
2018-07-22T13:25:08.848Z,17.00
2018-07-22T13:27:36.454Z,17.10
2018-07-22T13:30:05.248Z,17.20
2018-07-22T13:32:32.849Z,17.40
2018-07-22T13:35:00.438Z,17.50
2018-07-22T13:37:28.977Z,17.60
2018-07-22T13:39:56.565Z,17.70
2018-07-22T13:42:24.317Z,17.80
2018-07-22T13:44:51.926Z,17.80
2018-07-22T13:47:19.537Z,17.90
2018-07-22T13:49:47.125Z,18.00
2018-07-22T13:54:42.196Z,18.00
2018-07-22T13:57:09.777Z,17.90
2018-07-22T13:59:37.348Z,17.70
2018-07-22T14:02:05.260Z,17.70
2018-07-22T14:04:32.873Z,17.60
2018-07-22T14:07:00.473Z,17.40
2018-07-22T14:09:28.073Z,17.20
2018-07-22T14:11:56.789Z,17.20
2018-07-22T14:14:24.376Z,17.10
2018-07-22T14:16:52.097Z,17.20
2018-07-22T14:19:19.697Z,17.20
2018-07-22T14:21:47.305Z,17.30
2018-07-22T14:24:15.889Z,17.30
2018-07-22T14:26:43.493Z,17.40
2018-07-22T14:31:39.825Z,17.70
2018-07-22T14:34:07.421Z,17.90
2018-07-22T14:36:35.177Z,17.70
2018-07-22T14:39:03.505Z,17.50
2018-07-22T14:41:31.232Z,17.20
2018-07-22T14:43:58.833Z,17.20
2018-07-22T14:46:27.125Z,17.20
2018-07-22T14:48:54.781Z,17.40
2018-07-22T14:51:22.725Z,17.40
2018-07-22T14:53:50.304Z,17.60
2018-07-22T14:56:18.905Z,17.40
2018-07-22T14:58:46.584Z,17.30
2018-07-22T15:01:14.184Z,17.50
2018-07-22T15:03:43.693Z,17.40
2018-07-22T15:06:11.873Z,17.50
2018-07-22T15:08:39.752Z,17.60
2018-07-22T15:11:07.341Z,17.50
2018-07-22T15:13:35.047Z,17.50
2018-07-22T15:16:02.628Z,17.50
2018-07-22T15:18:30.281Z,17.40
2018-07-22T15:20:57.863Z,17.40
2018-07-22T15:23:25.517Z,17.50
2018-07-22T15:25:53.131Z,17.70
2018-07-22T15:28:21.376Z,17.70
2018-07-22T15:30:48.965Z,17.90
2018-07-22T15:33:16.565Z,17.80
2018-07-22T15:35:44.137Z,17.90
2018-07-22T15:38:11.933Z,17.90
2018-07-22T15:40:42.402Z,18.00
2018-07-22T15:43:10.054Z,18.20
2018-07-22T15:45:38.396Z,18.20
2018-07-22T15:48:06.105Z,18.30
2018-07-22T15:50:34.689Z,18.60
2018-07-22T15:53:02.294Z,18.80
2018-07-22T15:55:29.979Z,18.90
2018-07-22T15:57:57.501Z,19.20
2018-07-22T16:00:25.136Z,19.50
2018-07-22T16:02:52.725Z,19.90
2018-07-22T16:05:20.310Z,20.10
2018-07-22T16:07:48.258Z,20.30
2018-07-22T16:10:15.992Z,20.60
2018-07-22T16:12:43.744Z,20.80
2018-07-22T16:15:11.341Z,21.00
2018-07-22T16:17:38.925Z,20.80
2018-07-22T16:20:06.513Z,20.70
2018-07-22T16:22:34.118Z,20.50
2018-07-22T16:25:01.807Z,20.40
2018-07-22T16:27:29.647Z,20.20
2018-07-22T16:29:57.466Z,20.10
2018-07-22T16:32:25.197Z,19.90
2018-07-22T16:34:52.805Z,19.60
2018-07-22T16:37:20.397Z,19.50
2018-07-22T16:39:47.961Z,19.40
2018-07-22T16:42:15.590Z,19.40
2018-07-22T16:44:43.204Z,19.40
2018-07-22T16:47:10.997Z,19.30
2018-07-22T16:52:06.093Z,19.10
2018-07-22T16:54:34.646Z,19.00
2018-07-22T16:57:02.251Z,18.80
2018-07-22T16:59:29.831Z,18.80
2018-07-22T17:01:57.417Z,18.80
2018-07-22T17:04:25.028Z,18.80
2018-07-22T17:06:52.743Z,18.70
2018-07-22T17:09:20.314Z,18.60
2018-07-22T17:11:47.893Z,18.70
2018-07-22T17:14:16.089Z,18.70
2018-07-22T17:16:43.693Z,18.50
2018-07-22T17:19:11.270Z,18.60
2018-07-22T17:21:38.894Z,18.70
2018-07-22T17:24:06.813Z,18.60
2018-07-22T17:26:34.464Z,18.60
2018-07-22T17:29:02.036Z,18.70
2018-07-22T17:31:29.629Z,18.70
2018-07-22T17:33:57.224Z,18.60
2018-07-22T17:36:25.045Z,18.50
2018-07-22T17:38:52.659Z,18.50
2018-07-22T17:41:20.295Z,18.50
2018-07-22T17:43:48.449Z,18.50
2018-07-22T17:46:16.148Z,18.40
2018-07-22T17:48:43.733Z,18.50
2018-07-22T17:51:11.339Z,18.40
2018-07-22T17:53:38.965Z,18.40
2018-07-22T17:56:06.537Z,18.30
2018-07-22T17:58:34.120Z,18.30
2018-07-22T18:01:01.713Z,18.30
2018-07-22T18:03:30.625Z,18.30
2018-07-22T18:05:58.416Z,18.20
2018-07-22T18:08:26.068Z,18.20
2018-07-22T18:10:54.102Z,18.20
2018-07-22T18:13:21.700Z,18.10
2018-07-22T18:15:49.485Z,18.10
2018-07-22T18:18:17.153Z,17.90
2018-07-22T18:20:46.713Z,17.90
2018-07-22T18:23:14.365Z,17.80
2018-07-22T18:25:42.956Z,17.80
2018-07-22T18:28:10.821Z,17.80
2018-07-22T18:30:38.404Z,17.80
2018-07-22T18:33:06.064Z,17.90
2018-07-22T18:35:33.664Z,17.80
2018-07-22T18:38:01.335Z,17.70
2018-07-22T18:40:29.921Z,17.80
2018-07-22T18:42:57.508Z,17.80
2018-07-22T18:45:25.236Z,17.80
2018-07-22T18:47:53.245Z,17.70
2018-07-22T18:50:20.841Z,17.70
2018-07-22T18:52:48.699Z,17.70
2018-07-22T18:57:43.809Z,17.50
2018-07-22T19:00:11.419Z,17.50
2018-07-22T19:02:39.076Z,17.50
2018-07-22T19:05:06.844Z,17.40
2018-07-22T19:07:34.429Z,17.40
2018-07-22T19:10:02.104Z,17.30
2018-07-22T19:12:29.686Z,17.30
2018-07-22T19:14:57.253Z,17.40
2018-07-22T19:17:24.873Z,17.30
2018-07-22T19:19:52.432Z,17.20
2018-07-22T19:22:20.053Z,17.20
2018-07-22T19:24:47.695Z,17.20
2018-07-22T19:27:15.497Z,17.20
2018-07-22T19:29:43.081Z,17.10
2018-07-22T19:32:10.683Z,17.00
2018-07-22T19:34:38.293Z,17.00
2018-07-22T19:37:06.054Z,17.00
2018-07-22T19:39:34.470Z,17.00
2018-07-22T19:42:02.133Z,17.10
2018-07-22T19:44:29.732Z,17.10
2018-07-22T19:46:57.358Z,17.10
2018-07-22T19:49:25.024Z,17.20
2018-07-22T19:51:52.777Z,17.20
2018-07-22T19:54:20.385Z,17.30
2018-07-22T19:56:47.988Z,17.40
2018-07-22T19:59:15.601Z,17.40
2018-07-22T20:01:43.301Z,17.40
2018-07-22T20:04:13.114Z,17.40
2018-07-22T20:06:41.589Z,17.50
2018-07-22T20:09:10.529Z,17.50
2018-07-22T20:11:38.265Z,17.50
2018-07-22T20:14:06.836Z,17.70
2018-07-22T20:16:34.746Z,17.70
2018-07-22T20:19:02.324Z,17.70
2018-07-22T20:21:31.334Z,17.70
2018-07-22T20:23:59.031Z,17.60
2018-07-22T20:26:26.605Z,17.60
2018-07-22T20:28:54.345Z,17.60
2018-07-22T20:31:21.968Z,17.60
2018-07-22T20:33:49.560Z,17.60
2018-07-22T20:36:17.145Z,17.60
2018-07-22T20:38:45.658Z,17.40
2018-07-22T20:41:13.278Z,17.30
2018-07-22T20:43:40.877Z,17.20
2018-07-22T20:46:08.465Z,17.00
2018-07-22T20:48:36.075Z,17.00
2018-07-22T20:51:03.704Z,17.00
2018-07-22T20:53:31.296Z,17.00
2018-07-22T20:55:59.346Z,17.10
2018-07-22T20:58:28.448Z,16.90
2018-07-22T21:00:56.300Z,17.00
2018-07-22T21:03:23.901Z,17.10
2018-07-22T21:05:51.466Z,17.20
2018-07-22T21:08:19.061Z,17.30
2018-07-22T21:10:47.649Z,17.40
2018-07-22T21:13:20.012Z,17.40
2018-07-22T21:15:47.804Z,17.30
2018-07-22T21:18:15.424Z,17.20
2018-07-22T21:20:43.033Z,17.40
2018-07-22T21:23:10.648Z,17.40
2018-07-22T21:25:38.249Z,17.50
2018-07-22T21:28:05.928Z,17.50
2018-07-22T21:30:33.505Z,17.50
2018-07-22T21:33:01.141Z,17.50
2018-07-22T21:35:29.824Z,17.60
2018-07-22T21:37:57.440Z,17.60
2018-07-22T21:40:25.225Z,17.60
2018-07-22T21:42:52.804Z,17.50
2018-07-22T21:45:20.708Z,17.40
2018-07-22T21:47:48.301Z,17.50
2018-07-22T21:50:15.879Z,17.50
2018-07-22T21:52:43.570Z,17.50
2018-07-22T21:55:11.164Z,17.60
2018-07-22T22:00:31.474Z,17.50
2018-07-22T22:03:00.329Z,17.40
2018-07-22T22:05:27.942Z,17.40
2018-07-22T22:10:24.455Z,17.40
2018-07-22T22:12:52.225Z,17.40
2018-07-22T22:15:23.751Z,17.40
2018-07-22T22:17:51.877Z,17.40
2018-07-22T22:20:19.581Z,17.30
2018-07-22T22:22:47.321Z,17.30
2018-07-22T22:25:14.897Z,17.30
2018-07-22T22:27:42.493Z,17.40
2018-07-22T22:30:10.949Z,17.30
2018-07-22T22:32:38.570Z,17.20
2018-07-22T22:35:07.301Z,17.20
2018-07-22T22:37:34.929Z,17.10
2018-07-22T22:40:02.637Z,17.20
2018-07-22T22:42:30.241Z,17.40
2018-07-22T22:44:57.841Z,17.40
2018-07-22T22:47:25.424Z,17.50
2018-07-22T22:49:53.013Z,17.50
2018-07-22T22:52:21.945Z,17.60
2018-07-22T22:54:49.921Z,17.60
2018-07-22T22:57:17.522Z,17.70
2018-07-22T23:02:12.739Z,17.50
2018-07-22T23:04:40.297Z,17.50
2018-07-22T23:07:07.917Z,17.50
2018-07-22T23:09:35.495Z,17.60
2018-07-22T23:12:03.158Z,17.60
2018-07-22T23:14:30.737Z,17.50
2018-07-22T23:16:58.332Z,17.50
2018-07-22T23:19:25.988Z,17.60
2018-07-22T23:24:21.986Z,17.60
2018-07-22T23:26:50.569Z,17.60
2018-07-22T23:29:18.144Z,17.50
2018-07-22T23:31:45.739Z,17.50
2018-07-22T23:34:13.329Z,17.50
2018-07-22T23:36:40.937Z,17.60
2018-07-22T23:39:09.074Z,17.60
2018-07-22T23:41:36.675Z,17.50
2018-07-22T23:44:04.257Z,17.60
2018-07-22T23:46:31.840Z,17.60
2018-07-22T23:48:59.405Z,17.60
2018-07-22T23:51:27.012Z,17.60
2018-07-22T23:53:54.624Z,17.60
2018-07-22T23:56:22.209Z,17.60
2018-07-22T23:58:49.784Z,17.70
